Time;durP1;ratioP1;P1;durP2;ratioP2;P2;SDS_P1;SDS_P2;PMS_P1;PMS_P2;Temp;Humidity;BMP_temperature;BMP_pressure;BME280_temperature;BME280_humidity;BME280_pressure;Samples;Min_cycle;Max_cycle;Signal;HPM_P1;HPM_P2
2023/08/16 00:00:19;;;;;;;13.82;7.13;;;;;;;22.46;62.32;101287.75;682449;28;1195;-79
2023/08/16 00:00:39;;;;;;;11.88;6.72;;;;;;;22.46;62.24;101287.75;685923;28;1565;-79
2023/08/16 00:01:00;;;;;;;9.97;6.20;;;;;;;22.43;62.43;101273.59;682694;28;1204;-79
2023/08/16 00:01:21;;;;;;;11.77;6.70;;;;;;;22.43;62.38;101277.16;682740;28;1101;-79
2023/08/16 00:01:42;;;;;;;11.70;6.68;;;;;;;22.52;62.21;101297.44;679823;29;1353;-79
2023/08/16 00:02:03;;;;;;;10.18;6.55;;;;;;;22.46;62.27;101278.91;682055;29;1303;-79
2023/08/16 00:02:24;;;;;;;9.67;6.70;;;;;;;22.43;62.21;101269.19;682937;28;1278;-78
2023/08/16 00:02:45;;;;;;;11.98;7.30;;;;;;;22.46;62.33;101279.75;684942;28;1581;-80
2023/08/16 00:03:05;;;;;;;11.98;7.28;;;;;;;22.42;62.40;101275.41;677686;29;1861;-79
2023/08/16 00:03:26;;;;;;;12.83;7.37;;;;;;;22.43;62.22;101274.50;677388;29;1033;-79
2023/08/16 00:03:47;;;;;;;11.48;7.20;;;;;;;22.45;62.14;101266.50;680075;29;1015;-79
2023/08/16 00:04:08;;;;;;;16.55;7.38;;;;;;;22.43;62.19;101273.59;687339;28;1639;-79
2023/08/16 00:04:29;;;;;;;16.67;7.30;;;;;;;22.50;62.30;101285.06;685271;28;1099;-79
2023/08/16 00:04:50;;;;;;;20.00;7.60;;;;;;;22.45;62.00;101278.00;682418;29;1211;-79
2023/08/16 00:05:11;;;;;;;20.15;7.72;;;;;;;22.45;62.00;101275.34;687649;28;1519;-79
2023/08/16 00:05:32;;;;;;;18.70;7.57;;;;;;;22.46;62.12;101271.78;681277;29;1224;-79
2023/08/16 00:05:53;;;;;;;14.98;6.90;;;;;;;22.51;62.20;101279.72;682279;29;1910;-79
2023/08/16 00:06:14;;;;;;;9.80;6.70;;;;;;;22.50;62.38;101280.59;679765;29;1853;-79
2023/08/16 00:06:35;;;;;;;9.50;6.70;;;;;;;22.50;62.25;101280.59;687983;28;1168;-79
2023/08/16 00:06:56;;;;;;;8.80;6.90;;;;;;;22.43;62.20;101270.94;687838;28;1093;-79
2023/08/16 00:07:16;;;;;;;8.73;6.90;;;;;;;22.49;62.36;101278.00;686130;28;1629;-79
2023/08/16 00:07:38;;;;;;;9.38;7.25;;;;;;;22.50;62.19;101279.75;684674;28;1276;-79
2023/08/16 00:07:59;;;;;;;9.70;7.45;;;;;;;22.46;62.26;101271.78;679796;29;1303;-79
2023/08/16 00:08:19;;;;;;;12.00;8.23;;;;;;;22.49;62.04;101278.00;684831;28;1515;-79
2023/08/16 00:08:40;;;;;;;11.67;8.10;;;;;;;22.52;62.15;101277.94;682429;28;1300;-79
2023/08/16 00:09:01;;;;;;;11.30;7.90;;;;;;;22.57;62.33;101286.75;679901;29;1034;-79
2023/08/16 00:09:22;;;;;;;8.85;7.25;;;;;;;22.48;62.51;101276.22;679896;29;1053;-79
2023/08/16 00:09:43;;;;;;;10.27;7.53;;;;;;;22.49;62.35;101278.00;679828;29;1363;-79
2023/08/16 00:10:09;;;;;;;12.30;7.72;;;;;;;22.51;62.21;101276.19;680250;29;1131;-79
2023/08/16 00:10:29;;;;;;;13.40;7.57;;;;;;;22.52;62.53;101277.94;687058;28;1671;-79
2023/08/16 00:10:50;;;;;;;11.88;7.72;;;;;;;22.51;62.48;101278.84;684126;28;1789;-79
2023/08/16 00:11:11;;;;;;;11.10;7.90;;;;;;;22.54;62.55;101281.44;686742;28;969;-79
2023/08/16 00:11:31;;;;;;;11.75;8.38;;;;;;;22.51;62.42;101284.16;684766;28;1491;-79
2023/08/16 00:11:52;;;;;;;13.10;8.50;;;;;;;22.45;62.40;101267.38;685030;28;1037;-79
2023/08/16 00:12:13;;;;;;;13.63;8.60;;;;;;;22.56;62.43;101280.53;679907;29;1194;-78
2023/08/16 00:12:33;;;;;;;13.23;8.38;;;;;;;22.46;62.32;101271.78;682254;28;1491;-79
2023/08/16 00:12:54;;;;;;;11.35;7.90;;;;;;;22.52;62.42;101283.25;684897;28;1654;-79
2023/08/16 00:13:15;;;;;;;10.57;7.53;;;;;;;22.46;62.55;101271.78;683033;28;1116;-78
2023/08/16 00:13:36;;;;;;;11.18;7.70;;;;;;;22.48;62.38;101278.91;684408;28;1310;-79
2023/08/16 00:13:57;;;;;;;12.30;7.75;;;;;;;22.48;62.44;101273.56;682350;29;1968;-79
2023/08/16 00:14:18;;;;;;;12.53;7.77;;;;;;;22.46;62.53;101278.91;685182;28;1430;-80
2023/08/16 00:14:39;;;;;;;11.85;7.40;;;;;;;22.44;62.37;101264.75;684926;28;1513;-79
2023/08/16 00:14:59;;;;;;;10.60;7.63;;;;;;;22.46;62.21;101273.59;685290;28;1223;-79
2023/08/16 00:15:20;;;;;;;12.15;7.80;;;;;;;22.47;62.25;101280.66;683016;28;1800;-79
2023/08/16 00:15:41;;;;;;;12.80;8.03;;;;;;;22.47;62.50;101283.31;682125;29;1131;-79
2023/08/16 00:16:02;;;;;;;12.48;7.70;;;;;;;22.48;62.38;101286.88;680530;28;1261;-79
2023/08/16 00:16:23;;;;;;;11.75;7.93;;;;;;;22.49;62.33;101285.97;679896;28;1442;-79
2023/08/16 00:16:44;;;;;;;10.98;8.23;;;;;;;22.41;62.38;101276.31;679876;29;1185;-79
2023/08/16 00:17:05;;;;;;;14.18;8.50;;;;;;;22.45;62.37;101280.66;682030;28;1822;-79
2023/08/16 00:17:25;;;;;;;13.75;8.20;;;;;;;22.42;62.49;101278.06;677386;29;1340;-79
2023/08/16 00:17:47;;;;;;;14.20;8.17;;;;;;;22.40;62.37;101271.91;682390;28;1208;-79
2023/08/16 00:18:08;;;;;;;11.40;8.30;;;;;;;22.44;62.43;101281.56;683365;28;1834;-78
2023/08/16 00:18:29;;;;;;;12.32;8.75;;;;;;;22.42;62.38;101280.72;681870;28;1290;-79
2023/08/16 00:18:50;;;;;;;13.20;8.55;;;;;;;22.42;62.43;101278.06;680160;29;1068;-79
2023/08/16 00:19:11;;;;;;;13.77;8.57;;;;;;;22.42;62.38;101277.19;679811;29;1118;-79
2023/08/16 00:19:32;;;;;;;13.27;8.37;;;;;;;22.42;62.29;101280.72;682072;29;1153;-79
2023/08/16 00:19:52;;;;;;;12.27;8.52;;;;;;;22.45;62.34;101296.63;679827;29;1337;-79
2023/08/16 00:20:13;;;;;;;12.23;8.40;;;;;;;22.39;62.42;101283.44;680388;29;1010;-79
2023/08/16 00:20:34;;;;;;;11.23;8.40;;;;;;;22.36;62.48;101271.97;680234;29;1205;-79
2023/08/16 00:20:55;;;;;;;12.70;8.67;;;;;;;22.37;62.50;101277.25;679451;29;1808;-79
2023/08/16 00:21:15;;;;;;;12.20;8.93;;;;;;;22.39;62.58;101286.09;682615;29;1139;-81
2023/08/16 00:21:36;;;;;;;12.90;8.80;;;;;;;22.35;62.51;101275.50;682734;29;1069;-79
2023/08/16 00:21:57;;;;;;;12.47;9.03;;;;;;;22.35;62.66;101278.16;680765;29;1251;-79
2023/08/16 00:22:18;;;;;;;12.27;9.02;;;;;;;22.37;62.74;101282.56;680065;29;1230;-79
2023/08/16 00:22:39;;;;;;;12.43;9.27;;;;;;;22.34;62.62;101279.94;682373;29;1088;-79
2023/08/16 00:22:59;;;;;;;15.73;8.93;;;;;;;22.32;62.50;101277.31;682532;29;1231;-78
2023/08/16 00:23:20;;;;;;;15.38;8.32;;;;;;;22.38;62.78;101286.09;685214;28;1436;-78
2023/08/16 00:23:41;;;;;;;16.83;8.70;;;;;;;22.40;62.77;101294.94;685194;28;1367;-78
2023/08/16 00:24:04;;;;;;;13.23;8.60;;;;;;;22.35;62.78;101276.38;679825;29;1708;-80
2023/08/16 00:24:25;;;;;;;14.80;9.13;;;;;;;22.36;62.99;101277.28;677597;29;1786;-78
2023/08/16 00:24:45;;;;;;;13.43;9.02;;;;;;;22.38;63.12;101281.66;685525;28;1085;-79
2023/08/16 00:25:06;;;;;;;12.50;8.77;;;;;;;22.40;62.98;101284.31;685464;28;1027;-79
2023/08/16 00:25:27;;;;;;;12.18;8.80;;;;;;;22.37;63.06;101274.59;686017;28;1111;-78
2023/08/16 00:25:48;;;;;;;11.10;8.57;;;;;;;22.39;63.10;101278.13;691181;28;964;-78
2023/08/16 00:26:08;;;;;;;14.02;8.90;;;;;;;22.37;62.96;101271.06;690696;28;933;-79
2023/08/16 00:26:29;;;;;;;13.38;8.52;;;;;;;22.36;63.02;101275.47;682641;28;1168;-79
2023/08/16 00:26:50;;;;;;;14.05;8.10;;;;;;;22.39;63.33;101280.78;679865;29;1117;-79
2023/08/16 00:27:11;;;;;;;11.90;8.00;;;;;;;22.39;63.44;101277.22;682843;29;990;-79
2023/08/16 00:27:31;;;;;;;13.70;8.45;;;;;;;22.37;63.17;101273.72;685101;28;1072;-79
2023/08/16 00:27:52;;;;;;;12.35;9.10;;;;;;;22.36;63.20;101278.13;685258;28;1294;-80
2023/08/16 00:28:13;;;;;;;11.93;9.20;;;;;;;22.37;63.31;101271.06;680117;29;1073;-79
2023/08/16 00:28:33;;;;;;;11.27;8.82;;;;;;;22.38;63.48;101276.34;680139;29;899;-79
2023/08/16 00:28:55;;;;;;;11.57;9.00;;;;;;;22.45;63.36;101282.47;680078;29;1131;-79
2023/08/16 00:29:16;;;;;;;13.57;8.77;;;;;;;22.40;63.23;101278.97;682819;28;1469;-79
2023/08/16 00:29:36;;;;;;;15.73;8.48;;;;;;;22.38;63.11;101267.50;687904;28;1088;-77
2023/08/16 00:29:58;;;;;;;17.45;8.75;;;;;;;22.42;63.29;101278.06;688149;28;1175;-79
2023/08/16 00:30:19;;;;;;;15.20;8.80;;;;;;;22.35;63.03;101272.84;682703;29;1075;-79
2023/08/16 00:30:39;;;;;;;12.15;8.57;;;;;;;22.42;63.27;101287.81;685155;28;1132;-79
2023/08/16 00:31:00;;;;;;;13.90;8.40;;;;;;;22.36;63.38;101267.50;682589;28;1302;-79
2023/08/16 00:31:21;;;;;;;13.70;8.43;;;;;;;22.32;63.51;101269.31;680152;29;1072;-79
2023/08/16 00:31:42;;;;;;;14.38;8.70;;;;;;;22.37;63.40;101269.25;680133;29;1368;-79
2023/08/16 00:32:07;;;;;;;12.68;8.60;;;;;;;22.37;63.61;101269.25;682914;29;1112;-79
2023/08/16 00:32:28;;;;;;;12.98;8.93;;;;;;;22.41;63.75;101281.63;679364;29;1202;-79
2023/08/16 00:32:48;;;;;;;11.18;8.95;;;;;;;22.38;63.56;101264.84;679278;29;1306;-79
2023/08/16 00:33:09;;;;;;;12.65;9.43;;;;;;;22.39;63.57;101267.50;681430;29;1256;-79
2023/08/16 00:33:29;;;;;;;13.17;9.03;;;;;;;22.45;63.91;101274.50;680099;28;1095;-79
2023/08/16 00:33:50;;;;;;;13.90;9.00;;;;;;;22.34;63.89;101256.03;679874;29;1973;-79
2023/08/16 00:34:11;;;;;;;13.90;8.80;;;;;;;22.41;63.83;101268.34;680119;29;1075;-78
2023/08/16 00:34:31;;;;;;;13.40;8.63;;;;;;;22.45;63.90;101283.34;681517;29;1057;-79
2023/08/16 00:34:52;;;;;;;12.45;8.30;;;;;;;22.40;63.82;101274.56;680784;29;1101;-79
2023/08/16 00:35:13;;;;;;;11.98;8.52;;;;;;;22.38;64.15;101270.16;686085;28;1076;-79
2023/08/16 00:35:33;;;;;;;16.40;12.47;;;;;;;22.40;64.17;101274.56;685878;28;732;-78
2023/08/16 00:35:54;;;;;;;32.95;24.70;;;;;;;22.37;64.11;101271.91;686707;28;1140;-79
2023/08/16 00:36:15;;;;;;;49.53;37.90;;;;;;;22.36;64.01;101262.19;686655;28;965;-79
2023/08/16 00:36:36;;;;;;;67.68;52.85;;;;;;;22.39;64.13;101271.91;684618;28;1860;-79
2023/08/16 00:36:57;;;;;;;84.10;65.33;;;;;;;22.37;64.35;101279.91;686036;28;1133;-78
2023/08/16 00:37:17;;;;;;;99.53;76.05;;;;;;;22.43;64.51;101285.13;680638;29;1180;-79
2023/08/16 00:37:38;;;;;;;115.10;85.97;;;;;;;22.38;64.58;101276.34;678004;29;1321;-79
2023/08/16 00:37:59;;;;;;;125.45;94.95;;;;;;;22.27;64.57;101263.22;681442;29;1131;-79
2023/08/16 00:38:20;;;;;;;146.30;105.97;;;;;;;22.28;64.84;101272.06;689013;28;1237;-78
2023/08/16 00:38:43;;;;;;;128.33;91.70;;;;;;;22.28;64.66;101277.38;679080;29;1122;-79
2023/08/16 00:39:04;;;;;;;86.72;62.00;;;;;;;22.30;64.76;101283.53;680741;29;915;-79
2023/08/16 00:39:24;;;;;;;49.70;36.30;;;;;;;22.25;64.93;101274.72;683726;28;1519;-79
2023/08/16 00:39:45;;;;;;;41.03;29.60;;;;;;;22.28;64.78;101282.69;688453;28;1843;-80
2023/08/16 00:40:08;;;;;;;38.15;26.42;;;;;;;22.18;64.84;101269.47;687565;28;1411;-79
2023/08/16 00:40:29;;;;;;;34.00;23.77;;;;;;;22.15;65.03;101271.31;688565;28;1578;-79
2023/08/16 00:40:51;;;;;;;26.80;19.95;;;;;;;22.11;65.05;101267.81;682901;29;1582;-79
2023/08/16 00:41:12;;;;;;;23.45;17.95;;;;;;;22.16;64.92;101276.59;683215;29;980;-79
2023/08/16 00:41:34;;;;;;;22.30;16.75;;;;;;;22.13;65.12;101284.59;678190;29;2029;-79
2023/08/16 00:41:54;;;;;;;21.83;16.10;;;;;;;22.11;65.31;101278.44;679178;29;1568;-79
2023/08/16 00:42:15;;;;;;;21.67;15.25;;;;;;;22.09;65.40;101277.56;683149;28;1205;-78
2023/08/16 00:42:36;;;;;;;19.30;14.02;;;;;;;22.03;65.34;101269.69;685672;28;1109;-79
2023/08/16 00:42:57;;;;;;;16.03;12.00;;;;;;;22.13;65.63;101292.56;682614;28;1847;-79
2023/08/16 00:43:18;;;;;;;13.18;10.30;;;;;;;22.14;65.33;101291.66;686451;28;1273;-79
2023/08/16 00:43:39;;;;;;;13.20;9.57;;;;;;;22.09;65.42;101277.56;685571;28;1240;-79
2023/08/16 00:44:00;;;;;;;14.07;9.30;;;;;;;22.06;65.55;101264.31;685104;28;1612;-79
2023/08/16 00:44:21;;;;;;;13.77;9.57;;;;;;;22.09;65.17;101277.56;680221;29;1312;-79
2023/08/16 00:44:41;;;;;;;13.30;9.00;;;;;;;22.08;65.23;101273.16;680126;29;1042;-79
2023/08/16 00:45:03;;;;;;;13.27;9.10;;;;;;;22.06;65.26;101272.28;682584;28;1537;-80
2023/08/16 00:45:24;;;;;;;13.52;8.70;;;;;;;22.17;65.08;101289.00;680172;29;1261;-79
2023/08/16 00:45:48;;;;;;;19.27;9.52;;;;;;;22.06;65.29;101272.28;680015;29;1265;-79
2023/08/16 00:46:11;;;;;;;20.35;10.07;;;;;;;22.10;65.29;101268.69;680788;29;1441;-79
2023/08/16 00:46:33;;;;;;;20.40;10.35;;;;;;;22.11;65.47;101272.22;682944;28;835;-79
2023/08/16 00:46:54;;;;;;;13.80;10.02;;;;;;;22.11;65.59;101272.22;685362;28;1102;-79
2023/08/16 00:47:17;;;;;;;13.43;9.43;;;;;;;22.18;65.32;101281.88;685986;28;1721;-79
2023/08/16 00:47:38;;;;;;;14.68;9.60;;;;;;;22.12;65.41;101277.53;685564;28;1229;-79
2023/08/16 00:47:59;;;;;;;14.50;9.48;;;;;;;22.14;65.48;101278.38;679992;29;1211;-79
2023/08/16 00:48:20;;;;;;;13.23;9.55;;;;;;;22.10;65.42;101271.34;683549;28;1473;-79
2023/08/16 00:48:42;;;;;;;11.80;8.90;;;;;;;22.18;65.42;101282.78;685607;28;1138;-79
2023/08/16 00:49:04;;;;;;;13.33;9.00;;;;;;;22.13;65.24;101276.63;679911;29;1523;-79
2023/08/16 00:49:25;;;;;;;13.95;8.98;;;;;;;22.14;65.20;101272.19;678512;29;1185;-79
2023/08/16 00:49:45;;;;;;;16.67;9.30;;;;;;;22.21;65.04;101289.84;682746;29;1104;-79
2023/08/16 00:50:07;;;;;;;15.85;8.90;;;;;;;22.09;65.13;101272.25;682615;28;1246;-79
2023/08/16 00:50:30;;;;;;;16.42;9.20;;;;;;;22.20;65.18;101282.75;684063;28;1581;-79
2023/08/16 00:50:51;;;;;;;13.93;9.00;;;;;;;22.22;65.12;101280.06;685288;28;1122;-79
2023/08/16 00:51:12;;;;;;;12.70;8.97;;;;;;;22.16;65.18;101273.94;680408;29;1592;-79
2023/08/16 00:51:34;;;;;;;12.38;8.70;;;;;;;22.18;65.03;101279.22;675298;29;1105;-79
2023/08/16 00:51:55;;;;;;;11.48;8.57;;;;;;;22.16;64.97;101276.59;679951;29;1115;-79
2023/08/16 00:52:16;;;;;;;11.35;8.35;;;;;;;22.17;65.04;101275.69;680025;29;1159;-79
2023/08/16 00:52:38;;;;;;;12.20;8.50;;;;;;;22.13;65.00;101268.66;683458;28;1527;-80
2023/08/16 00:53:01;;;;;;;14.23;9.13;;;;;;;22.21;65.08;101283.63;685036;28;1140;-79
2023/08/16 00:53:24;;;;;;;15.07;9.40;;;;;;;22.22;65.18;101288.03;677296;29;1424;-79
2023/08/16 00:53:46;;;;;;;13.95;8.88;;;;;;;22.15;65.11;101279.28;677471;29;1156;-79
2023/08/16 00:54:06;;;;;;;10.85;7.97;;;;;;;22.13;65.13;101281.94;682566;28;1961;-79
2023/08/16 00:54:28;;;;;;;10.25;7.97;;;;;;;22.07;65.14;101271.38;682777;29;1080;-79
2023/08/16 00:54:49;;;;;;;9.82;7.80;;;;;;;22.06;65.04;101274.94;684694;28;1217;-79
2023/08/16 00:55:11;;;;;;;10.25;7.85;;;;;;;22.09;65.23;101274.03;688041;28;995;-79
2023/08/16 00:55:33;;;;;;;11.30;8.23;;;;;;;22.09;65.46;101268.72;684051;28;1331;-79
2023/08/16 00:55:55;;;;;;;13.93;9.15;;;;;;;22.11;65.42;101274.88;678943;29;1281;-79
2023/08/16 00:56:16;;;;;;;14.45;9.85;;;;;;;22.14;65.58;101283.69;682578;28;1193;-79
2023/08/16 00:56:37;;;;;;;13.60;9.30;;;;;;;22.13;65.58;101275.75;682594;28;1539;-79
2023/08/16 00:56:58;;;;;;;13.67;9.30;;;;;;;22.13;65.67;101283.75;685112;28;1791;-79
2023/08/16 00:57:19;;;;;;;14.82;9.27;;;;;;;22.10;65.67;101267.81;680210;29;1043;-79
2023/08/16 00:57:40;;;;;;;16.00;10.10;;;;;;;22.11;65.58;101270.47;682184;29;1225;-79
2023/08/16 00:58:02;;;;;;;14.10;9.63;;;;;;;22.10;65.73;101268.69;682329;29;1147;-79
2023/08/16 00:58:22;;;;;;;12.77;9.25;;;;;;;22.13;65.49;101271.31;682953;28;1013;-79
2023/08/16 00:58:43;;;;;;;12.20;8.88;;;;;;;22.08;65.56;101262.53;690218;28;1234;-79
2023/08/16 00:59:05;;;;;;;11.63;8.93;;;;;;;22.16;65.53;101281.03;685157;28;1362;-79
2023/08/16 00:59:27;;;;;;;11.10;8.20;;;;;;;22.10;65.53;101268.69;677969;29;1500;-79
2023/08/16 00:59:48;;;;;;;12.23;8.17;;;;;;;22.16;65.61;101276.59;678242;29;1236;-79
2023/08/16 01:00:10;;;;;;;12.63;8.00;;;;;;;22.09;65.45;101269.59;679964;29;1093;-79
2023/08/16 01:00:31;;;;;;;13.40;8.65;;;;;;;22.06;65.65;101259.00;676497;29;1672;-79
2023/08/16 01:00:52;;;;;;;14.25;9.20;;;;;;;22.14;65.62;101274.84;674818;29;1125;-78
2023/08/16 01:01:13;;;;;;;14.57;9.52;;;;;;;22.10;65.76;101271.34;677183;29;1699;-79
2023/08/16 01:01:34;;;;;;;16.05;9.90;;;;;;;22.03;65.73;101256.38;677496;29;1211;-79
2023/08/16 01:01:54;;;;;;;14.18;9.57;;;;;;;22.04;65.83;101256.38;679898;29;993;-79
2023/08/16 01:02:17;;;;;;;13.73;9.30;;;;;;;22.10;65.98;101262.50;679415;29;1829;-79
2023/08/16 01:02:38;;;;;;;11.52;9.00;;;;;;;22.16;65.77;101276.59;684824;28;1264;-79
2023/08/16 01:02:59;;;;;;;11.38;9.00;;;;;;;22.11;65.71;101264.25;690241;28;1101;-79
2023/08/16 01:03:20;;;;;;;10.77;8.95;;;;;;;22.13;66.13;101266.00;684862;28;1350;-80
2023/08/16 01:03:41;;;;;;;12.10;9.00;;;;;;;22.11;65.64;101267.81;679995;28;1305;-80
2023/08/16 01:04:02;;;;;;;14.93;8.80;;;;;;;22.15;65.80;101271.31;685354;28;988;-79
2023/08/16 01:04:22;;;;;;;19.08;9.40;;;;;;;22.13;65.77;101266.00;685134;28;1187;-79
2023/08/16 01:04:45;;;;;;;18.08;8.98;;;;;;;22.14;65.63;101270.41;679749;29;1700;-79
2023/08/16 01:05:06;;;;;;;15.70;8.95;;;;;;;22.10;65.91;101260.72;680147;29;1130;-79
2023/08/16 01:05:27;;;;;;;12.00;8.45;;;;;;;22.11;65.78;101261.59;681774;28;1304;-79
2023/08/16 01:05:47;;;;;;;12.13;8.77;;;;;;;22.09;65.86;101261.63;681872;29;1406;-79
2023/08/16 01:06:08;;;;;;;11.68;8.90;;;;;;;22.07;65.90;101258.09;682742;28;1061;-79
2023/08/16 01:06:29;;;;;;;11.07;9.05;;;;;;;22.11;65.94;101261.59;682000;29;1363;-79
2023/08/16 01:06:53;;;;;;;11.63;9.23;;;;;;;22.13;65.97;101270.44;680017;29;1180;-79
2023/08/16 01:07:14;;;;;;;10.52;8.90;;;;;;;22.06;65.79;101256.34;681839;29;1398;-79
2023/08/16 01:07:34;;;;;;;11.80;8.93;;;;;;;22.02;65.99;101258.16;678449;29;1163;-79
2023/08/16 01:07:56;;;;;;;11.52;8.75;;;;;;;22.06;65.94;101256.34;684632;28;1868;-79
2023/08/16 01:08:17;;;;;;;12.25;8.90;;;;;;;21.99;65.74;101252.00;687213;28;1033;-79
2023/08/16 01:08:38;;;;;;;13.65;8.70;;;;;;;22.08;65.73;101262.53;685268;28;1088;-79
2023/08/16 01:08:59;;;;;;;15.50;9.27;;;;;;;22.05;65.67;101259.91;687280;28;1490;-79
2023/08/16 01:09:20;;;;;;;15.20;9.10;;;;;;;22.00;65.64;101251.97;687888;28;1480;-79
2023/08/16 01:09:41;;;;;;;13.40;9.20;;;;;;;22.07;65.72;101259.88;685150;28;1107;-79
2023/08/16 01:10:03;;;;;;;14.03;9.57;;;;;;;21.99;65.55;101252.00;682334;29;1217;-79
2023/08/16 01:10:39;;;;;;;15.35;10.60;;;;;;;22.05;65.60;101262.56;677335;29;1108;-79
2023/08/16 01:11:18;;;;;;;14.20;10.13;;;;;;;22.05;65.81;101265.22;679768;29;1668;-79
2023/08/16 01:11:45;;;;;;;12.25;9.00;;;;;;;22.01;65.48;101266.16;679479;29;1387;-79
2023/08/16 01:12:19;;;;;;;11.85;9.63;;;;;;;21.93;65.80;101257.41;681389;29;1449;-79
2023/08/16 01:12:47;;;;;;;13.02;9.73;;;;;;;21.95;65.91;101264.44;682344;29;2033;-79
2023/08/16 01:13:48;;;;;;;11.13;8.75;;;;;;;21.91;65.88;101260.97;685034;28;1167;-79
2023/08/16 01:14:23;;;;;;;12.35;9.32;;;;;;;21.88;65.78;101263.63;684148;28;1100;-79
2023/08/16 01:14:49;;;;;;;12.82;9.25;;;;;;;21.86;65.76;101260.13;688447;28;1045;-79
2023/08/16 01:15:33;;;;;;;12.50;9.32;;;;;;;21.86;65.85;101270.75;684652;28;1480;-79
2023/08/16 01:15:57;;;;;;;14.65;9.63;;;;;;;21.74;65.91;101252.28;682443;28;1244;-79
2023/08/16 01:16:21;;;;;;;16.10;9.68;;;;;;;21.76;66.11;101253.16;680074;28;1233;-78
2023/08/16 01:16:45;;;;;;;14.38;9.40;;;;;;;21.78;66.08;101262.00;682183;28;1386;-78
2023/08/16 01:17:07;;;;;;;13.02;9.05;;;;;;;21.73;66.31;101247.88;682377;29;1482;-79
2023/08/16 01:17:29;;;;;;;13.18;8.77;;;;;;;21.77;66.23;101262.91;685120;28;1044;-79
2023/08/16 01:17:50;;;;;;;12.35;9.07;;;;;;;21.78;66.26;101262.84;685155;28;1135;-78
2023/08/16 01:18:12;;;;;;;12.77;9.65;;;;;;;21.73;66.22;101256.72;685077;28;1141;-78
2023/08/16 01:18:35;;;;;;;11.77;9.52;;;;;;;21.77;66.25;101268.22;690521;28;1318;-78
2023/08/16 01:18:58;;;;;;;11.43;9.27;;;;;;;21.71;66.28;101252.34;684612;28;1225;-79
2023/08/16 01:19:28;;;;;;;10.20;9.10;;;;;;;21.75;66.30;101264.66;682492;29;1136;-79
2023/08/16 01:19:53;;;;;;;11.98;9.95;;;;;;;21.78;66.26;101264.66;679680;29;1383;-79
2023/08/16 01:20:15;;;;;;;13.82;10.73;;;;;;;21.74;66.37;101257.59;679888;29;1242;-79
2023/08/16 01:20:38;;;;;;;13.90;10.85;;;;;;;21.73;66.49;101266.47;679289;29;1214;-79
2023/08/16 01:20:58;;;;;;;15.20;11.05;;;;;;;21.75;66.50;101269.97;679529;29;1014;-79
2023/08/16 01:21:20;;;;;;;14.32;10.50;;;;;;;21.76;66.40;101277.06;682587;29;946;-78
2023/08/16 01:21:47;;;;;;;15.55;10.65;;;;;;;21.77;66.38;101278.84;684903;28;1097;-79
2023/08/16 01:22:25;;;;;;;13.38;9.90;;;;;;;21.77;66.42;101278.84;684817;28;1555;-79
2023/08/16 01:22:52;;;;;;;11.50;9.30;;;;;;;21.76;66.13;101277.94;679822;28;1640;-79
2023/08/16 01:23:37;;;;;;;12.45;9.93;;;;;;;21.73;66.34;101271.78;690435;28;2071;-78
2023/08/16 01:24:16;;;;;;;13.75;10.38;;;;;;;21.71;66.20;101276.22;681828;29;1137;-78
2023/08/16 01:24:46;;;;;;;12.40;9.60;;;;;;;21.71;66.14;101278.88;680586;29;1120;-79
2023/08/16 01:25:13;;;;;;;12.38;9.00;;;;;;;21.70;66.23;101271.81;679365;29;2015;-78
2023/08/16 01:25:47;;;;;;;13.50;9.13;;;;;;;21.72;66.31;101284.19;682967;29;1040;-79
2023/08/16 01:26:16;;;;;;;17.08;10.50;;;;;;;21.72;66.24;101281.53;685754;28;1154;-78
2023/08/16 01:26:39;;;;;;;16.98;11.23;;;;;;;21.69;66.42;101288.66;687699;28;1079;-79
2023/08/16 01:27:21;;;;;;;14.80;10.77;;;;;;;21.68;66.37;101293.06;685526;28;1368;-79
2023/08/16 01:27:43;;;;;;;13.02;10.20;;;;;;;21.60;66.45;101279.00;680206;29;1014;-78
2023/08/16 01:28:05;;;;;;;12.63;9.77;;;;;;;21.62;66.56;101279.84;677668;29;1145;-78
2023/08/16 01:28:26;;;;;;;12.27;10.02;;;;;;;21.67;66.42;101293.09;680768;28;1134;-79
2023/08/16 01:28:49;;;;;;;13.07;10.27;;;;;;;21.63;66.31;101282.50;685618;28;1201;-79
2023/08/16 01:29:10;;;;;;;14.60;10.40;;;;;;;21.65;66.67;101293.13;688237;28;1387;-79
2023/08/16 01:29:33;;;;;;;15.40;10.43;;;;;;;21.57;66.61;101274.59;685543;28;1995;-78
2023/08/16 01:29:53;;;;;;;15.05;10.43;;;;;;;21.64;66.60;101291.38;682953;29;1072;-79
2023/08/16 01:30:15;;;;;;;13.88;10.43;;;;;;;21.56;66.79;101280.81;682905;29;1087;-79
2023/08/16 01:30:38;;;;;;;13.98;10.60;;;;;;;21.55;66.54;101279.06;685428;28;1556;-79
2023/08/16 01:31:02;;;;;;;14.05;10.60;;;;;;;21.56;66.55;101280.81;682661;29;1757;-79
2023/08/16 01:31:23;;;;;;;13.98;10.05;;;;;;;21.62;66.59;101285.16;680695;28;1293;-79
2023/08/16 01:31:44;;;;;;;13.75;9.32;;;;;;;21.55;66.59;101273.72;680198;29;1433;-79
2023/08/16 01:32:06;;;;;;;14.82;9.68;;;;;;;21.61;66.65;101289.63;677975;29;1018;-79
2023/08/16 01:32:31;;;;;;;13.60;9.63;;;;;;;21.60;66.79;101293.16;683605;28;1403;-78
2023/08/16 01:32:52;;;;;;;12.88;9.65;;;;;;;21.59;66.46;101279.91;682533;28;1448;-78
2023/08/16 01:33:13;;;;;;;13.02;10.05;;;;;;;21.57;66.75;101277.25;685759;28;1096;-79
2023/08/16 01:33:34;;;;;;;14.65;10.52;;;;;;;21.58;66.66;101278.13;686746;28;1225;-79
2023/08/16 01:33:55;;;;;;;14.55;10.50;;;;;;;21.59;66.75;101277.25;682734;29;1964;-79
2023/08/16 01:34:16;;;;;;;12.90;9.93;;;;;;;21.58;66.81;101281.66;683003;29;1161;-78
2023/08/16 01:34:36;;;;;;;13.32;10.63;;;;;;;21.58;66.66;101281.66;685128;28;1498;-79
2023/08/16 01:34:57;;;;;;;13.02;10.80;;;;;;;21.60;66.79;101281.66;677328;28;1237;-78
2023/08/16 01:35:18;;;;;;;16.33;11.07;;;;;;;21.59;66.70;101286.06;682073;29;1825;-78
2023/08/16 01:35:40;;;;;;;15.50;10.65;;;;;;;21.63;66.54;101287.81;687142;28;1257;-79
2023/08/16 01:36:01;;;;;;;17.15;10.70;;;;;;;21.60;66.80;101282.53;688253;28;1212;-79
2023/08/16 01:36:21;;;;;;;16.55;10.82;;;;;;;21.57;66.75;101279.91;683334;28;1764;-79
2023/08/16 01:36:42;;;;;;;15.93;10.57;;;;;;;21.52;66.53;101263.16;683384;28;1560;-78
2023/08/16 01:37:03;;;;;;;16.88;10.77;;;;;;;21.61;66.64;101280.75;680036;29;1241;-78
2023/08/16 01:37:24;;;;;;;15.80;10.52;;;;;;;21.56;66.83;101275.50;685031;28;1039;-79
2023/08/16 01:37:48;;;;;;;17.35;11.07;;;;;;;21.56;66.90;101274.59;680027;29;1114;-79
2023/08/16 01:38:12;;;;;;;15.90;10.60;;;;;;;21.60;66.84;101286.97;682316;29;1260;-79
2023/08/16 01:38:33;;;;;;;15.73;10.23;;;;;;;21.56;66.88;101285.22;687979;28;1758;-79
2023/08/16 01:38:55;;;;;;;14.63;10.18;;;;;;;21.57;66.90;101281.69;682596;28;1583;-78
2023/08/16 01:39:16;;;;;;;13.43;9.98;;;;;;;21.57;67.02;101285.22;679579;29;1985;-79
2023/08/16 01:39:38;;;;;;;17.52;10.50;;;;;;;21.55;67.00;101283.47;680175;29;1147;-79
2023/08/16 01:40:04;;;;;;;17.02;10.68;;;;;;;21.55;66.79;101273.72;682838;29;1484;-78
2023/08/16 01:40:29;;;;;;;14.35;10.50;;;;;;;21.58;66.63;101278.13;685324;28;1434;-78
2023/08/16 01:40:58;;;;;;;15.90;10.75;;;;;;;21.54;66.71;101271.09;685449;28;1854;-78
2023/08/16 01:41:35;;;;;;;14.43;10.68;;;;;;;21.63;66.74;101290.47;682177;29;1042;-79
2023/08/16 01:41:58;;;;;;;14.32;10.57;;;;;;;21.55;66.57;101279.06;679943;29;1378;-79
2023/08/16 01:42:20;;;;;;;14.57;10.60;;;;;;;21.56;66.67;101280.81;682718;28;1303;-78
2023/08/16 01:42:47;;;;;;;15.93;10.40;;;;;;;21.58;66.77;101280.78;682524;29;1100;-79
2023/08/16 01:43:10;;;;;;;15.38;10.80;;;;;;;21.53;66.68;101275.53;680255;29;1007;-78
2023/08/16 01:43:32;;;;;;;14.43;10.80;;;;;;;21.62;66.82;101291.38;684034;28;998;-79
2023/08/16 01:43:55;;;;;;;14.30;11.20;;;;;;;21.57;66.58;101285.22;684693;28;1649;-79
2023/08/16 01:44:18;;;;;;;17.45;11.63;;;;;;;21.59;66.70;101286.06;680037;29;1364;-79
2023/08/16 01:44:39;;;;;;;16.10;11.13;;;;;;;21.61;66.77;101294.03;682976;28;1400;-79
2023/08/16 01:45:01;;;;;;;13.95;10.50;;;;;;;21.55;66.70;101283.47;677123;29;1459;-80
2023/08/16 01:45:23;;;;;;;14.90;10.60;;;;;;;21.51;66.81;101282.63;680283;29;1030;-79